createdAt,value
2022-10-06T00:02:42.754Z,13.40
2022-10-06T00:06:05.297Z,13.40
2022-10-06T00:09:26.841Z,13.30
2022-10-06T00:12:49.381Z,13.20
2022-10-06T00:16:13.777Z,13.20
2022-10-06T00:19:35.588Z,13.10
2022-10-06T00:22:57.184Z,13.10
2022-10-06T00:26:18.750Z,13.20
2022-10-06T00:29:40.279Z,13.30
2022-10-06T00:33:03.462Z,13.30
2022-10-06T00:36:25.023Z,13.30
2022-10-06T00:39:46.570Z,13.30
2022-10-06T00:43:23.041Z,13.30
2022-10-06T00:46:45.619Z,13.30
2022-10-06T00:50:09.683Z,13.20
2022-10-06T00:53:31.724Z,13.10
2022-10-06T00:56:53.267Z,13.00
2022-10-06T01:00:15.011Z,12.90
2022-10-06T01:03:37.958Z,12.90
2022-10-06T01:07:01.394Z,12.80
2022-10-06T01:10:22.940Z,12.80
2022-10-06T01:13:45.120Z,12.70
2022-10-06T01:17:09.487Z,12.60
2022-10-06T01:20:31.155Z,12.60
2022-10-06T01:23:54.406Z,12.50
2022-10-06T01:27:16.324Z,12.50
2022-10-06T01:30:40.524Z,12.40
2022-10-06T01:34:02.115Z,12.40
2022-10-06T01:37:23.735Z,12.30
2022-10-06T01:40:46.680Z,12.20
2022-10-06T01:44:08.270Z,12.10
2022-10-06T01:47:29.835Z,12.10
2022-10-06T01:50:51.599Z,12.00
2022-10-06T01:54:13.719Z,12.00
2022-10-06T01:57:39.687Z,12.00
2022-10-06T02:01:04.442Z,12.00
2022-10-06T02:04:26.068Z,12.00
2022-10-06T02:07:47.686Z,12.10
2022-10-06T02:11:10.147Z,12.10
2022-10-06T02:14:33.077Z,12.20
2022-10-06T02:17:54.857Z,12.20
2022-10-06T02:21:17.402Z,12.20
2022-10-06T02:24:38.960Z,12.20
2022-10-06T02:28:00.541Z,12.30
2022-10-06T02:31:23.768Z,12.40
2022-10-06T02:34:45.358Z,12.40
2022-10-06T02:38:06.901Z,12.40
2022-10-06T02:41:28.465Z,12.30
2022-10-06T02:44:50.035Z,12.30
2022-10-06T02:48:13.465Z,12.10
2022-10-06T02:51:35.048Z,12.00
2022-10-06T02:54:56.587Z,11.80
2022-10-06T02:58:18.133Z,11.70
2022-10-06T03:01:39.750Z,11.60
2022-10-06T03:05:02.770Z,11.60
2022-10-06T03:08:24.334Z,11.40
2022-10-06T03:11:45.896Z,11.40
2022-10-06T03:15:07.797Z,11.40
2022-10-06T03:18:29.613Z,11.40
2022-10-06T03:21:52.755Z,11.30
2022-10-06T03:25:14.361Z,11.30
2022-10-06T03:28:35.976Z,11.30
2022-10-06T03:31:57.572Z,11.20
2022-10-06T03:35:19.106Z,11.10
2022-10-06T03:38:42.327Z,11.20
2022-10-06T03:42:03.916Z,11.10
2022-10-06T03:45:25.439Z,11.30
2022-10-06T03:48:47.634Z,11.60
2022-10-06T03:52:09.195Z,11.80
2022-10-06T03:55:32.112Z,11.90
2022-10-06T03:58:54.330Z,12.10
2022-10-06T04:02:15.923Z,12.20
2022-10-06T04:05:37.496Z,12.20
2022-10-06T04:08:59.540Z,12.20
2022-10-06T04:12:22.516Z,12.00
2022-10-06T04:15:44.346Z,11.70
2022-10-06T04:19:06.641Z,11.50
2022-10-06T04:22:28.201Z,11.40
2022-10-06T04:25:55.154Z,11.40
2022-10-06T04:29:19.034Z,11.40
2022-10-06T04:32:40.637Z,11.40
2022-10-06T04:36:03.277Z,11.30
2022-10-06T04:39:24.841Z,11.20
2022-10-06T04:42:46.425Z,11.10
2022-10-06T04:46:30.655Z,11.10
2022-10-06T04:49:51.814Z,11.00
2022-10-06T04:53:13.390Z,11.00
2022-10-06T04:56:34.937Z,11.00
2022-10-06T04:59:56.504Z,11.00
2022-10-06T05:03:19.500Z,11.00
2022-10-06T05:06:42.121Z,11.00
2022-10-06T05:10:03.963Z,11.00
2022-10-06T05:13:25.540Z,10.90
2022-10-06T05:16:47.130Z,10.90
2022-10-06T05:20:10.334Z,10.90
2022-10-06T05:23:32.942Z,10.90
2022-10-06T05:26:58.312Z,10.80
2022-10-06T05:30:22.501Z,10.90
2022-10-06T05:33:44.112Z,11.00
2022-10-06T05:37:07.016Z,11.10
2022-10-06T05:40:28.540Z,11.20
2022-10-06T05:43:50.415Z,11.40
2022-10-06T05:47:11.982Z,11.50
2022-10-06T05:50:33.538Z,11.60
2022-10-06T05:53:56.507Z,11.80
2022-10-06T05:57:18.051Z,11.90
2022-10-06T06:00:39.585Z,12.10
2022-10-06T06:04:02.134Z,12.20
2022-10-06T06:07:23.730Z,12.30
2022-10-06T06:10:46.654Z,12.40
2022-10-06T06:14:08.862Z,12.40
2022-10-06T06:17:31.028Z,12.60
2022-10-06T06:20:55.798Z,12.70
2022-10-06T06:24:17.386Z,12.70
2022-10-06T06:27:40.308Z,12.80
2022-10-06T06:31:02.425Z,12.80
2022-10-06T06:34:25.032Z,12.90
2022-10-06T06:37:46.591Z,13.00
2022-10-06T06:41:14.899Z,13.10
2022-10-06T06:44:38.020Z,13.20
2022-10-06T06:47:59.577Z,13.40
2022-10-06T06:51:21.175Z,13.50
2022-10-06T06:54:42.757Z,13.60
2022-10-06T06:58:05.256Z,13.70
2022-10-06T07:01:28.183Z,13.70
2022-10-06T07:04:49.784Z,13.90
2022-10-06T07:08:11.336Z,13.90
2022-10-06T07:11:33.582Z,14.00
2022-10-06T07:14:55.917Z,14.10
2022-10-06T07:18:19.137Z,14.40
2022-10-06T07:21:40.699Z,14.70
2022-10-06T07:25:08.090Z,14.90
2022-10-06T07:28:29.746Z,15.20
2022-10-06T07:31:51.333Z,15.40
2022-10-06T07:35:14.290Z,15.60
2022-10-06T07:38:35.857Z,15.70
2022-10-06T07:41:57.571Z,15.90
2022-10-06T07:45:20.150Z,16.00
2022-10-06T07:48:41.888Z,16.00
2022-10-06T07:52:04.800Z,16.00
2022-10-06T07:55:26.360Z,15.90
2022-10-06T07:58:48.268Z,16.00
2022-10-06T08:02:10.031Z,16.00
2022-10-06T08:05:31.703Z,16.10
2022-10-06T08:08:54.638Z,16.20
2022-10-06T08:12:16.223Z,16.30
2022-10-06T08:15:37.795Z,16.40
2022-10-06T08:18:59.620Z,16.60
2022-10-06T08:22:21.262Z,16.70
2022-10-06T08:25:49.085Z,16.80
2022-10-06T08:29:10.640Z,17.00
2022-10-06T08:32:33.044Z,17.00
2022-10-06T08:35:54.612Z,17.10
2022-10-06T08:39:16.179Z,17.20
2022-10-06T08:42:41.109Z,17.40
2022-10-06T08:46:03.562Z,17.50
2022-10-06T08:49:25.738Z,17.60
2022-10-06T08:52:50.761Z,17.70
2022-10-06T08:56:14.027Z,17.90
2022-10-06T08:59:37.227Z,17.90
2022-10-06T09:03:00.074Z,17.90
2022-10-06T09:06:28.514Z,18.00
2022-10-06T09:09:57.146Z,18.00
2022-10-06T09:13:22.223Z,18.00
2022-10-06T09:16:48.489Z,18.00
2022-10-06T09:20:13.943Z,18.00
2022-10-06T09:23:37.319Z,18.20
2022-10-06T09:26:58.968Z,18.30
2022-10-06T09:30:20.541Z,18.30
2022-10-06T09:33:44.159Z,18.20
2022-10-06T09:37:06.470Z,18.20
2022-10-06T09:40:34.995Z,18.20
2022-10-06T09:43:57.618Z,18.40
2022-10-06T09:47:22.984Z,18.80
2022-10-06T09:50:59.599Z,19.00
2022-10-06T09:54:21.188Z,19.20
2022-10-06T09:57:47.714Z,19.30
2022-10-06T10:01:11.455Z,19.20
2022-10-06T10:04:36.005Z,19.60
2022-10-06T10:08:02.462Z,19.80
2022-10-06T10:11:27.793Z,19.70
2022-10-06T10:14:49.363Z,19.60
2022-10-06T10:18:12.477Z,19.90
2022-10-06T10:21:34.543Z,20.10
2022-10-06T10:25:01.964Z,19.90
2022-10-06T10:28:31.330Z,19.80
2022-10-06T10:32:00.036Z,19.40
2022-10-06T10:35:24.565Z,19.10
2022-10-06T10:38:47.059Z,18.90
2022-10-06T10:42:12.967Z,18.80
2022-10-06T10:45:36.239Z,18.80
2022-10-06T10:49:00.895Z,18.80
2022-10-06T10:52:24.334Z,18.70
2022-10-06T10:55:47.292Z,18.50
2022-10-06T10:59:14.987Z,18.40
2022-10-06T11:02:36.594Z,18.50
2022-10-06T11:06:07.913Z,18.50
2022-10-06T11:09:35.363Z,18.50
2022-10-06T11:13:03.985Z,18.60
2022-10-06T11:16:33.758Z,18.80
2022-10-06T11:19:57.497Z,19.00
2022-10-06T11:23:24.759Z,19.20
2022-10-06T11:26:56.625Z,19.50
2022-10-06T11:30:19.677Z,19.40
2022-10-06T11:33:46.917Z,19.40
2022-10-06T11:37:15.087Z,19.30
2022-10-06T11:40:40.170Z,19.20
2022-10-06T11:44:04.048Z,19.30
2022-10-06T11:47:35.050Z,19.30
2022-10-06T11:51:18.622Z,19.20
2022-10-06T11:54:45.478Z,19.10
2022-10-06T12:01:54.608Z,18.90
2022-10-06T12:05:55.792Z,18.90
2022-10-06T12:09:45.319Z,19.00
2022-10-06T12:13:40.049Z,19.20
2022-10-06T12:17:16.796Z,19.40
2022-10-06T12:20:46.667Z,19.30
2022-10-06T12:24:19.093Z,19.20
2022-10-06T12:27:50.596Z,19.10
2022-10-06T12:31:29.134Z,19.00
2022-10-06T12:34:55.566Z,19.00
2022-10-06T12:38:36.028Z,18.80
2022-10-06T12:41:58.217Z,18.60
2022-10-06T12:45:22.252Z,18.40
2022-10-06T12:48:52.750Z,18.50
2022-10-06T12:52:18.111Z,18.60
2022-10-06T12:55:42.482Z,18.60
2022-10-06T12:59:22.772Z,18.50
2022-10-06T13:02:44.470Z,18.40
2022-10-06T13:06:08.710Z,18.30
2022-10-06T13:09:30.330Z,18.30
2022-10-06T13:12:51.981Z,18.50
2022-10-06T13:16:13.914Z,18.80
2022-10-06T13:19:35.617Z,18.90
2022-10-06T13:22:59.950Z,18.80
2022-10-06T13:26:22.759Z,18.60
2022-10-06T13:29:44.323Z,18.30
2022-10-06T13:33:07.109Z,18.30
2022-10-06T13:36:29.520Z,18.30
2022-10-06T13:39:52.398Z,18.30
2022-10-06T13:43:16.362Z,18.30
2022-10-06T13:46:38.540Z,18.40
2022-10-06T13:50:03.008Z,18.40
2022-10-06T13:53:26.711Z,18.60
2022-10-06T13:56:49.616Z,18.70
2022-10-06T14:00:19.094Z,18.80
2022-10-06T14:03:40.681Z,18.60
2022-10-06T14:07:02.241Z,18.40
2022-10-06T14:13:51.318Z,18.20
2022-10-06T14:17:18.050Z,18.00
2022-10-06T14:20:41.147Z,17.80
2022-10-06T14:24:07.604Z,17.70
2022-10-06T14:27:32.691Z,17.60
2022-10-06T14:30:55.708Z,17.60
2022-10-06T14:34:18.018Z,17.60
2022-10-06T14:37:39.592Z,17.50
2022-10-06T14:41:01.696Z,17.40
2022-10-06T14:44:23.618Z,17.40
2022-10-06T14:47:46.515Z,17.40
2022-10-06T14:51:08.330Z,17.40
2022-10-06T14:54:30.007Z,17.50
2022-10-06T14:57:51.608Z,17.40
2022-10-06T15:01:13.969Z,17.40
2022-10-06T15:04:36.926Z,17.30
2022-10-06T15:07:58.504Z,17.30
2022-10-06T15:11:20.510Z,17.20
2022-10-06T15:14:42.087Z,17.10
2022-10-06T15:18:03.853Z,17.00
2022-10-06T15:21:27.232Z,17.00
2022-10-06T15:24:48.790Z,16.90
2022-10-06T15:28:12.437Z,16.80
2022-10-06T15:31:35.255Z,16.80
2022-10-06T15:34:56.899Z,16.90
2022-10-06T15:38:19.846Z,16.90
2022-10-06T15:41:41.894Z,16.80
2022-10-06T15:45:07.360Z,16.70
2022-10-06T15:48:29.276Z,16.60
2022-10-06T15:51:51.786Z,16.50
2022-10-06T15:55:14.758Z,16.40
2022-10-06T15:58:36.309Z,16.30
2022-10-06T16:01:58.768Z,16.30
2022-10-06T16:05:20.395Z,16.30
2022-10-06T16:08:42.053Z,16.20
2022-10-06T16:12:05.795Z,16.10
2022-10-06T16:15:27.337Z,16.00
2022-10-06T16:18:48.888Z,16.00
2022-10-06T16:22:11.608Z,15.90
2022-10-06T16:25:33.173Z,15.90
2022-10-06T16:28:56.112Z,15.90
2022-10-06T16:32:17.686Z,15.90
2022-10-06T16:35:39.234Z,15.90
2022-10-06T16:39:00.831Z,15.90
2022-10-06T16:42:22.388Z,15.80
2022-10-06T16:45:57.235Z,15.80
2022-10-06T16:49:22.755Z,15.70
2022-10-06T16:52:44.302Z,15.70
2022-10-06T16:56:06.714Z,15.70
2022-10-06T16:59:28.255Z,15.70
2022-10-06T17:02:51.147Z,15.60
2022-10-06T17:06:13.445Z,15.60
2022-10-06T17:09:35.270Z,15.60
2022-10-06T17:12:56.839Z,15.60
2022-10-06T17:16:19.210Z,15.60
2022-10-06T17:19:42.190Z,15.60
2022-10-06T17:23:03.743Z,15.60
2022-10-06T17:26:26.005Z,15.60
2022-10-06T17:29:47.544Z,15.60
2022-10-06T17:33:09.162Z,15.50
2022-10-06T17:36:32.055Z,15.50
2022-10-06T17:39:53.693Z,15.50
2022-10-06T17:43:15.245Z,15.50
2022-10-06T17:46:38.237Z,15.50
2022-10-06T17:49:59.796Z,15.50
2022-10-06T17:53:22.740Z,15.50
2022-10-06T17:56:44.783Z,15.40
2022-10-06T18:00:06.902Z,15.40
2022-10-06T18:03:28.445Z,15.30
2022-10-06T18:06:51.273Z,15.20
2022-10-06T18:10:14.349Z,15.20
2022-10-06T18:13:35.920Z,15.10
2022-10-06T18:16:58.317Z,15.10
2022-10-06T18:20:20.093Z,15.00
2022-10-06T18:23:41.670Z,15.00
2022-10-06T18:27:04.640Z,15.00
2022-10-06T18:30:29.241Z,15.00
2022-10-06T18:37:33.783Z,14.90
2022-10-06T18:40:56.055Z,14.90
2022-10-06T18:44:18.943Z,14.80
2022-10-06T18:47:40.614Z,14.80
2022-10-06T18:51:02.787Z,14.70
2022-10-06T18:54:25.283Z,14.60
2022-10-06T18:57:46.916Z,14.50
2022-10-06T19:01:10.279Z,14.50
2022-10-06T19:04:33.711Z,14.50
2022-10-06T19:07:55.265Z,14.50
2022-10-06T19:11:16.860Z,14.50
2022-10-06T19:14:38.419Z,14.50
2022-10-06T19:18:01.834Z,14.60
2022-10-06T19:21:23.390Z,14.60
2022-10-06T19:24:45.315Z,14.50
2022-10-06T19:28:06.947Z,14.50
2022-10-06T19:31:28.642Z,14.50
2022-10-06T19:34:51.595Z,14.50
2022-10-06T19:38:13.126Z,14.40
2022-10-06T19:41:34.748Z,14.40
2022-10-06T19:44:56.385Z,14.40
2022-10-06T19:48:17.924Z,14.30
2022-10-06T19:51:40.838Z,14.30
2022-10-06T19:55:02.375Z,14.30
2022-10-06T19:58:23.931Z,14.30
2022-10-06T20:01:45.562Z,14.30
2022-10-06T20:05:07.537Z,14.20
2022-10-06T20:08:34.466Z,14.20
2022-10-06T20:12:00.053Z,14.10
2022-10-06T20:15:23.207Z,14.10
2022-10-06T20:18:47.639Z,14.00
2022-10-06T20:22:09.625Z,14.00
2022-10-06T20:25:35.033Z,13.90
2022-10-06T20:28:56.711Z,13.80
2022-10-06T20:32:18.262Z,13.70
2022-10-06T20:35:39.823Z,13.60
2022-10-06T20:39:01.638Z,13.60
2022-10-06T20:42:24.573Z,13.50
2022-10-06T20:45:46.153Z,13.50
2022-10-06T20:49:08.858Z,13.50
2022-10-06T20:52:30.428Z,13.40
2022-10-06T20:55:51.974Z,13.40
2022-10-06T20:59:15.040Z,13.30
2022-10-06T21:02:36.790Z,13.40
2022-10-06T21:06:02.143Z,13.40
2022-10-06T21:09:25.145Z,13.40
2022-10-06T21:12:50.724Z,13.40
2022-10-06T21:16:15.985Z,13.40
2022-10-06T21:19:38.569Z,13.30
2022-10-06T21:23:01.943Z,13.30
2022-10-06T21:26:25.662Z,13.30
2022-10-06T21:29:48.736Z,13.30
2022-10-06T21:33:13.266Z,13.20
2022-10-06T21:36:35.810Z,13.10
2022-10-06T21:40:02.196Z,13.00
2022-10-06T21:43:24.372Z,13.00
2022-10-06T21:46:47.030Z,13.00
2022-10-06T21:50:10.960Z,13.00
2022-10-06T21:53:32.701Z,13.00
2022-10-06T21:56:54.449Z,13.10
2022-10-06T22:00:16.281Z,13.10
2022-10-06T22:03:38.406Z,13.20
2022-10-06T22:07:01.515Z,13.20
2022-10-06T22:10:23.308Z,13.20
2022-10-06T22:13:45.675Z,13.30
2022-10-06T22:17:07.440Z,13.30
2022-10-06T22:20:29.762Z,13.30
2022-10-06T22:23:55.147Z,13.30
2022-10-06T22:27:16.878Z,13.30
2022-10-06T22:30:38.619Z,13.30
2022-10-06T22:34:01.499Z,13.30
2022-10-06T22:37:23.249Z,13.40
2022-10-06T22:40:46.321Z,13.40
2022-10-06T22:44:08.508Z,13.40
2022-10-06T22:47:30.798Z,13.40
2022-10-06T22:50:54.042Z,13.40
2022-10-06T22:54:17.251Z,13.40
2022-10-06T22:57:40.350Z,13.40
2022-10-06T23:01:08.204Z,13.40
2022-10-06T23:04:29.965Z,13.40
2022-10-06T23:07:51.705Z,13.40
2022-10-06T23:11:14.544Z,13.40
2022-10-06T23:14:37.621Z,13.40
2022-10-06T23:17:59.381Z,13.50
2022-10-06T23:21:22.227Z,13.50
2022-10-06T23:24:44.154Z,13.40
2022-10-06T23:28:05.976Z,13.40
2022-10-06T23:31:29.241Z,13.40
2022-10-06T23:34:51.068Z,13.30
2022-10-06T23:38:13.496Z,13.30
2022-10-06T23:41:35.218Z,13.30
2022-10-06T23:44:57.017Z,13.20
2022-10-06T23:48:20.128Z,13.20
2022-10-06T23:51:41.848Z,13.20
2022-10-06T23:55:03.823Z,13.20
2022-10-06T23:58:26.016Z,13.20
